sensor_id;sensor_type;location;lat;lon;timestamp;temperature;humidity
76172;DHT22;64929;51.178;4.138;2024-03-25T00:00:44;6.70;99.90
76172;DHT22;64929;51.178;4.138;2024-03-25T00:03:10;6.60;99.90
76172;DHT22;64929;51.178;4.138;2024-03-25T00:05:35;6.50;99.90
76172;DHT22;64929;51.178;4.138;2024-03-25T00:08:02;6.60;99.90
76172;DHT22;64929;51.178;4.138;2024-03-25T00:10:27;6.50;99.90
76172;DHT22;64929;51.178;4.138;2024-03-25T00:12:53;6.50;99.90
76172;DHT22;64929;51.178;4.138;2024-03-25T00:15:21;6.50;99.90
76172;DHT22;64929;51.178;4.138;2024-03-25T00:17:46;6.40;99.90
76172;DHT22;64929;51.178;4.138;2024-03-25T00:20:13;6.40;99.90
76172;DHT22;64929;51.178;4.138;2024-03-25T00:22:38;6.40;99.90
76172;DHT22;64929;51.178;4.138;2024-03-25T00:25:04;6.50;99.90
76172;DHT22;64929;51.178;4.138;2024-03-25T00:27:29;6.50;99.90
76172;DHT22;64929;51.178;4.138;2024-03-25T00:29:56;6.40;99.90
76172;DHT22;64929;51.178;4.138;2024-03-25T00:32:21;6.50;99.90
76172;DHT22;64929;51.178;4.138;2024-03-25T00:34:47;6.40;99.90
76172;DHT22;64929;51.178;4.138;2024-03-25T00:37:12;6.40;99.90
76172;DHT22;64929;51.178;4.138;2024-03-25T00:39:38;6.30;99.90
76172;DHT22;64929;51.178;4.138;2024-03-25T00:42:04;6.10;99.90
76172;DHT22;64929;51.178;4.138;2024-03-25T00:44:29;6.10;99.90
76172;DHT22;64929;51.178;4.138;2024-03-25T00:46:55;6.30;99.90
76172;DHT22;64929;51.178;4.138;2024-03-25T00:49:20;6.60;99.90
76172;DHT22;64929;51.178;4.138;2024-03-25T00:51:47;6.50;99.90
76172;DHT22;64929;51.178;4.138;2024-03-25T00:54:12;6.60;99.90
76172;DHT22;64929;51.178;4.138;2024-03-25T00:56:38;6.80;99.90
76172;DHT22;64929;51.178;4.138;2024-03-25T00:59:03;6.90;99.90
76172;DHT22;64929;51.178;4.138;2024-03-25T01:01:30;6.80;99.90
76172;DHT22;64929;51.178;4.138;2024-03-25T01:03:57;6.80;99.90
76172;DHT22;64929;51.178;4.138;2024-03-25T01:06:22;6.80;99.90
76172;DHT22;64929;51.178;4.138;2024-03-25T01:08:48;6.70;99.90
76172;DHT22;64929;51.178;4.138;2024-03-25T01:11:13;6.60;99.90
76172;DHT22;64929;51.178;4.138;2024-03-25T01:13:39;6.60;99.90
76172;DHT22;64929;51.178;4.138;2024-03-25T01:16:06;6.60;99.90
76172;DHT22;64929;51.178;4.138;2024-03-25T01:18:32;6.50;99.90
76172;DHT22;64929;51.178;4.138;2024-03-25T01:20:58;6.40;99.90
76172;DHT22;64929;51.178;4.138;2024-03-25T01:23:23;6.50;99.90
76172;DHT22;64929;51.178;4.138;2024-03-25T01:25:49;6.50;99.90
76172;DHT22;64929;51.178;4.138;2024-03-25T01:28:15;6.60;99.90
76172;DHT22;64929;51.178;4.138;2024-03-25T01:30:41;6.60;99.90
76172;DHT22;64929;51.178;4.138;2024-03-25T01:33:06;6.50;99.90
76172;DHT22;64929;51.178;4.138;2024-03-25T01:35:32;6.20;99.90
76172;DHT22;64929;51.178;4.138;2024-03-25T01:37:58;6.00;99.90
76172;DHT22;64929;51.178;4.138;2024-03-25T01:40:23;6.00;99.90
76172;DHT22;64929;51.178;4.138;2024-03-25T01:42:58;5.90;99.90
76172;DHT22;64929;51.178;4.138;2024-03-25T01:45:24;5.70;99.90
76172;DHT22;64929;51.178;4.138;2024-03-25T01:47:50;5.80;99.90
76172;DHT22;64929;51.178;4.138;2024-03-25T01:50:16;6.10;99.90
76172;DHT22;64929;51.178;4.138;2024-03-25T01:52:42;6.40;99.90
76172;DHT22;64929;51.178;4.138;2024-03-25T01:55:07;6.40;99.90
76172;DHT22;64929;51.178;4.138;2024-03-25T01:57:35;6.20;99.90
76172;DHT22;64929;51.178;4.138;2024-03-25T02:00:00;6.30;99.90
76172;DHT22;64929;51.178;4.138;2024-03-25T02:02:26;6.00;99.90
76172;DHT22;64929;51.178;4.138;2024-03-25T02:04:51;6.00;99.90
76172;DHT22;64929;51.178;4.138;2024-03-25T02:07:17;6.10;99.90
76172;DHT22;64929;51.178;4.138;2024-03-25T02:09:43;6.30;99.90
76172;DHT22;64929;51.178;4.138;2024-03-25T02:12:09;6.40;99.90
76172;DHT22;64929;51.178;4.138;2024-03-25T02:14:35;6.30;99.90
76172;DHT22;64929;51.178;4.138;2024-03-25T02:17:01;6.20;99.90
76172;DHT22;64929;51.178;4.138;2024-03-25T02:19:26;6.20;99.90
76172;DHT22;64929;51.178;4.138;2024-03-25T02:21:53;6.10;99.90
76172;DHT22;64929;51.178;4.138;2024-03-25T02:24:18;6.00;99.90
76172;DHT22;64929;51.178;4.138;2024-03-25T02:26:45;6.00;99.90
76172;DHT22;64929;51.178;4.138;2024-03-25T02:29:10;6.00;99.90
76172;DHT22;64929;51.178;4.138;2024-03-25T02:31:36;5.90;99.90
76172;DHT22;64929;51.178;4.138;2024-03-25T02:34:01;5.70;99.90
76172;DHT22;64929;51.178;4.138;2024-03-25T02:36:29;5.70;99.90
76172;DHT22;64929;51.178;4.138;2024-03-25T02:38:55;5.90;99.90
76172;DHT22;64929;51.178;4.138;2024-03-25T02:41:20;6.00;99.90
76172;DHT22;64929;51.178;4.138;2024-03-25T02:43:48;6.10;99.90
76172;DHT22;64929;51.178;4.138;2024-03-25T02:46:13;6.40;99.90
76172;DHT22;64929;51.178;4.138;2024-03-25T02:48:39;6.40;99.90
76172;DHT22;64929;51.178;4.138;2024-03-25T02:51:05;6.30;99.90
76172;DHT22;64929;51.178;4.138;2024-03-25T02:53:31;6.30;99.90
76172;DHT22;64929;51.178;4.138;2024-03-25T02:55:56;6.30;99.90
76172;DHT22;64929;51.178;4.138;2024-03-25T02:58:22;6.30;99.90
76172;DHT22;64929;51.178;4.138;2024-03-25T03:00:47;6.20;99.90
76172;DHT22;64929;51.178;4.138;2024-03-25T03:03:13;6.40;99.90
76172;DHT22;64929;51.178;4.138;2024-03-25T03:05:38;6.40;99.90
76172;DHT22;64929;51.178;4.138;2024-03-25T03:08:04;6.40;99.90
76172;DHT22;64929;51.178;4.138;2024-03-25T03:10:30;6.30;99.90
76172;DHT22;64929;51.178;4.138;2024-03-25T03:12:55;6.30;99.90
76172;DHT22;64929;51.178;4.138;2024-03-25T03:15:21;6.40;99.90
76172;DHT22;64929;51.178;4.138;2024-03-25T03:17:46;6.30;99.90
76172;DHT22;64929;51.178;4.138;2024-03-25T03:20:12;6.20;99.90
76172;DHT22;64929;51.178;4.138;2024-03-25T03:22:37;6.10;99.90
76172;DHT22;64929;51.178;4.138;2024-03-25T03:25:03;6.00;99.90
76172;DHT22;64929;51.178;4.138;2024-03-25T03:27:29;6.20;99.90
76172;DHT22;64929;51.178;4.138;2024-03-25T03:29:56;6.20;99.90
76172;DHT22;64929;51.178;4.138;2024-03-25T03:32:22;6.20;99.90
76172;DHT22;64929;51.178;4.138;2024-03-25T03:34:47;6.00;99.90
76172;DHT22;64929;51.178;4.138;2024-03-25T03:37:13;5.90;99.90
76172;DHT22;64929;51.178;4.138;2024-03-25T03:39:38;5.80;99.90
76172;DHT22;64929;51.178;4.138;2024-03-25T03:42:04;5.80;99.90
76172;DHT22;64929;51.178;4.138;2024-03-25T03:44:30;5.80;99.90
76172;DHT22;64929;51.178;4.138;2024-03-25T03:46:55;5.90;99.90
76172;DHT22;64929;51.178;4.138;2024-03-25T03:49:21;5.90;99.90
76172;DHT22;64929;51.178;4.138;2024-03-25T03:51:46;5.80;99.90
76172;DHT22;64929;51.178;4.138;2024-03-25T03:54:12;5.70;99.90
76172;DHT22;64929;51.178;4.138;2024-03-25T03:56:37;5.80;99.90
76172;DHT22;64929;51.178;4.138;2024-03-25T03:59:03;5.70;99.90
76172;DHT22;64929;51.178;4.138;2024-03-25T04:01:29;5.60;99.90
76172;DHT22;64929;51.178;4.138;2024-03-25T04:03:55;5.60;99.90
76172;DHT22;64929;51.178;4.138;2024-03-25T04:06:20;5.70;99.90
76172;DHT22;64929;51.178;4.138;2024-03-25T04:08:46;5.60;99.90
76172;DHT22;64929;51.178;4.138;2024-03-25T04:11:12;5.60;99.90
76172;DHT22;64929;51.178;4.138;2024-03-25T04:13:37;5.70;99.90
76172;DHT22;64929;51.178;4.138;2024-03-25T04:16:04;5.60;99.90
76172;DHT22;64929;51.178;4.138;2024-03-25T04:18:31;5.70;99.90
76172;DHT22;64929;51.178;4.138;2024-03-25T04:20:57;5.70;99.90
76172;DHT22;64929;51.178;4.138;2024-03-25T04:23:22;5.50;99.90
76172;DHT22;64929;51.178;4.138;2024-03-25T04:25:48;5.50;99.90
76172;DHT22;64929;51.178;4.138;2024-03-25T04:28:14;5.40;99.90
76172;DHT22;64929;51.178;4.138;2024-03-25T04:30:39;5.40;99.90
76172;DHT22;64929;51.178;4.138;2024-03-25T04:33:05;5.60;99.90
76172;DHT22;64929;51.178;4.138;2024-03-25T04:35:30;5.50;99.90
76172;DHT22;64929;51.178;4.138;2024-03-25T04:37:56;5.40;99.90
76172;DHT22;64929;51.178;4.138;2024-03-25T04:40:22;5.30;99.90
76172;DHT22;64929;51.178;4.138;2024-03-25T04:42:47;5.10;99.90
76172;DHT22;64929;51.178;4.138;2024-03-25T04:45:14;5.30;99.90
76172;DHT22;64929;51.178;4.138;2024-03-25T04:47:39;5.20;99.90
76172;DHT22;64929;51.178;4.138;2024-03-25T04:50:05;5.20;99.90
76172;DHT22;64929;51.178;4.138;2024-03-25T04:52:31;5.10;99.90
76172;DHT22;64929;51.178;4.138;2024-03-25T04:54:57;5.10;99.90
76172;DHT22;64929;51.178;4.138;2024-03-25T04:57:22;5.30;99.90
76172;DHT22;64929;51.178;4.138;2024-03-25T04:59:48;5.30;99.90
76172;DHT22;64929;51.178;4.138;2024-03-25T05:02:14;5.30;99.90
76172;DHT22;64929;51.178;4.138;2024-03-25T05:04:39;5.40;99.90
76172;DHT22;64929;51.178;4.138;2024-03-25T05:07:05;5.40;99.90
76172;DHT22;64929;51.178;4.138;2024-03-25T05:09:30;5.40;99.90
76172;DHT22;64929;51.178;4.138;2024-03-25T05:11:56;5.50;99.90
76172;DHT22;64929;51.178;4.138;2024-03-25T05:14:22;5.60;99.90
76172;DHT22;64929;51.178;4.138;2024-03-25T05:16:47;5.60;99.90
76172;DHT22;64929;51.178;4.138;2024-03-25T05:19:14;5.70;99.90
76172;DHT22;64929;51.178;4.138;2024-03-25T05:21:40;5.80;99.90
76172;DHT22;64929;51.178;4.138;2024-03-25T05:24:06;5.80;99.90
76172;DHT22;64929;51.178;4.138;2024-03-25T05:26:31;5.80;99.90
76172;DHT22;64929;51.178;4.138;2024-03-25T05:28:57;5.70;99.90
76172;DHT22;64929;51.178;4.138;2024-03-25T05:31:23;5.70;99.90
76172;DHT22;64929;51.178;4.138;2024-03-25T05:33:49;5.80;99.90
76172;DHT22;64929;51.178;4.138;2024-03-25T05:36:15;5.80;99.90
76172;DHT22;64929;51.178;4.138;2024-03-25T05:38:41;5.80;99.90
76172;DHT22;64929;51.178;4.138;2024-03-25T05:41:08;5.70;99.90
76172;DHT22;64929;51.178;4.138;2024-03-25T05:43:34;5.70;99.90
76172;DHT22;64929;51.178;4.138;2024-03-25T05:45:59;5.80;99.90
76172;DHT22;64929;51.178;4.138;2024-03-25T05:48:25;5.90;99.90
76172;DHT22;64929;51.178;4.138;2024-03-25T05:51:03;6.00;99.90
76172;DHT22;64929;51.178;4.138;2024-03-25T05:53:38;6.00;99.90
76172;DHT22;64929;51.178;4.138;2024-03-25T05:56:03;6.00;99.90
76172;DHT22;64929;51.178;4.138;2024-03-25T05:58:29;6.10;99.90
76172;DHT22;64929;51.178;4.138;2024-03-25T06:00:54;6.10;99.90
76172;DHT22;64929;51.178;4.138;2024-03-25T06:03:21;6.00;99.90
76172;DHT22;64929;51.178;4.138;2024-03-25T06:05:46;6.10;99.90
76172;DHT22;64929;51.178;4.138;2024-03-25T06:08:12;6.10;99.90
76172;DHT22;64929;51.178;4.138;2024-03-25T06:10:49;6.10;99.90
76172;DHT22;64929;51.178;4.138;2024-03-25T06:13:15;6.10;99.90
76172;DHT22;64929;51.178;4.138;2024-03-25T06:15:40;6.20;99.90
76172;DHT22;64929;51.178;4.138;2024-03-25T06:18:06;6.30;99.90
76172;DHT22;64929;51.178;4.138;2024-03-25T06:20:32;6.30;99.90
76172;DHT22;64929;51.178;4.138;2024-03-25T06:22:57;6.40;99.90
76172;DHT22;64929;51.178;4.138;2024-03-25T06:25:23;6.50;99.90
76172;DHT22;64929;51.178;4.138;2024-03-25T06:27:48;6.60;99.90
76172;DHT22;64929;51.178;4.138;2024-03-25T06:30:14;6.60;99.90
76172;DHT22;64929;51.178;4.138;2024-03-25T06:32:58;6.70;99.90
76172;DHT22;64929;51.178;4.138;2024-03-25T06:35:42;6.60;99.90
76172;DHT22;64929;51.178;4.138;2024-03-25T06:38:08;6.60;99.90
76172;DHT22;64929;51.178;4.138;2024-03-25T06:40:34;6.70;99.90
76172;DHT22;64929;51.178;4.138;2024-03-25T06:42:59;6.50;99.90
76172;DHT22;64929;51.178;4.138;2024-03-25T06:45:25;6.50;99.90
76172;DHT22;64929;51.178;4.138;2024-03-25T06:47:51;6.70;99.90
76172;DHT22;64929;51.178;4.138;2024-03-25T06:50:16;6.80;99.90
76172;DHT22;64929;51.178;4.138;2024-03-25T06:52:42;6.80;99.90
76172;DHT22;64929;51.178;4.138;2024-03-25T06:55:07;6.70;99.90
76172;DHT22;64929;51.178;4.138;2024-03-25T06:57:33;6.70;99.90
76172;DHT22;64929;51.178;4.138;2024-03-25T06:59:59;6.70;99.90
76172;DHT22;64929;51.178;4.138;2024-03-25T07:02:24;6.60;99.90
76172;DHT22;64929;51.178;4.138;2024-03-25T07:04:50;6.70;99.90
76172;DHT22;64929;51.178;4.138;2024-03-25T07:07:15;6.70;99.90
76172;DHT22;64929;51.178;4.138;2024-03-25T07:09:41;6.70;99.90
76172;DHT22;64929;51.178;4.138;2024-03-25T07:12:07;6.60;99.90
76172;DHT22;64929;51.178;4.138;2024-03-25T07:14:32;6.60;99.90
76172;DHT22;64929;51.178;4.138;2024-03-25T07:16:58;6.70;99.90
76172;DHT22;64929;51.178;4.138;2024-03-25T07:19:24;6.70;99.90
76172;DHT22;64929;51.178;4.138;2024-03-25T07:21:49;6.70;99.90
76172;DHT22;64929;51.178;4.138;2024-03-25T07:24:15;6.70;99.90
76172;DHT22;64929;51.178;4.138;2024-03-25T07:26:40;6.90;99.90
76172;DHT22;64929;51.178;4.138;2024-03-25T07:29:06;7.00;99.90
76172;DHT22;64929;51.178;4.138;2024-03-25T07:31:32;7.10;99.90
76172;DHT22;64929;51.178;4.138;2024-03-25T07:33:58;7.10;99.90
76172;DHT22;64929;51.178;4.138;2024-03-25T07:36:23;7.10;99.90
76172;DHT22;64929;51.178;4.138;2024-03-25T07:38:49;7.10;99.90
76172;DHT22;64929;51.178;4.138;2024-03-25T07:41:15;7.10;99.90
76172;DHT22;64929;51.178;4.138;2024-03-25T07:43:40;7.10;99.90
76172;DHT22;64929;51.178;4.138;2024-03-25T07:46:06;7.20;99.90
76172;DHT22;64929;51.178;4.138;2024-03-25T07:48:32;7.30;99.90
76172;DHT22;64929;51.178;4.138;2024-03-25T07:50:57;7.30;99.90
76172;DHT22;64929;51.178;4.138;2024-03-25T07:53:23;7.40;99.90
76172;DHT22;64929;51.178;4.138;2024-03-25T07:55:48;7.50;99.90
76172;DHT22;64929;51.178;4.138;2024-03-25T07:58:14;7.50;99.90
76172;DHT22;64929;51.178;4.138;2024-03-25T08:00:39;7.60;99.90
76172;DHT22;64929;51.178;4.138;2024-03-25T08:03:05;7.60;99.90
76172;DHT22;64929;51.178;4.138;2024-03-25T08:05:30;7.70;99.90
76172;DHT22;64929;51.178;4.138;2024-03-25T08:07:56;7.60;99.90
76172;DHT22;64929;51.178;4.138;2024-03-25T08:10:21;7.60;99.90
76172;DHT22;64929;51.178;4.138;2024-03-25T08:12:47;7.60;99.90
76172;DHT22;64929;51.178;4.138;2024-03-25T08:15:13;7.80;99.90
76172;DHT22;64929;51.178;4.138;2024-03-25T08:17:39;7.90;99.90
76172;DHT22;64929;51.178;4.138;2024-03-25T08:20:05;8.00;99.90
76172;DHT22;64929;51.178;4.138;2024-03-25T08:22:30;8.10;99.90
76172;DHT22;64929;51.178;4.138;2024-03-25T08:24:56;8.30;99.90
76172;DHT22;64929;51.178;4.138;2024-03-25T08:27:21;8.30;99.90
76172;DHT22;64929;51.178;4.138;2024-03-25T08:29:47;8.10;99.90
76172;DHT22;64929;51.178;4.138;2024-03-25T08:32:14;8.10;99.90
76172;DHT22;64929;51.178;4.138;2024-03-25T08:34:39;8.10;99.90
76172;DHT22;64929;51.178;4.138;2024-03-25T08:37:05;8.20;99.90
76172;DHT22;64929;51.178;4.138;2024-03-25T08:39:30;8.30;99.90
76172;DHT22;64929;51.178;4.138;2024-03-25T08:41:56;8.40;99.90
76172;DHT22;64929;51.178;4.138;2024-03-25T08:44:21;8.40;99.90
76172;DHT22;64929;51.178;4.138;2024-03-25T08:46:47;8.40;99.90
76172;DHT22;64929;51.178;4.138;2024-03-25T08:49:13;8.70;99.90
76172;DHT22;64929;51.178;4.138;2024-03-25T08:51:38;8.80;99.90
76172;DHT22;64929;51.178;4.138;2024-03-25T08:54:04;8.70;99.90
76172;DHT22;64929;51.178;4.138;2024-03-25T08:56:29;8.70;99.90
76172;DHT22;64929;51.178;4.138;2024-03-25T08:58:55;8.70;99.90
76172;DHT22;64929;51.178;4.138;2024-03-25T09:01:20;8.80;99.90
76172;DHT22;64929;51.178;4.138;2024-03-25T09:03:46;8.90;99.90
76172;DHT22;64929;51.178;4.138;2024-03-25T09:06:12;9.10;99.90
76172;DHT22;64929;51.178;4.138;2024-03-25T09:08:37;9.30;99.90
76172;DHT22;64929;51.178;4.138;2024-03-25T09:11:23;9.40;99.90
76172;DHT22;64929;51.178;4.138;2024-03-25T09:13:50;9.60;99.90
76172;DHT22;64929;51.178;4.138;2024-03-25T09:16:16;9.50;99.90
76172;DHT22;64929;51.178;4.138;2024-03-25T09:18:42;9.40;99.90
76172;DHT22;64929;51.178;4.138;2024-03-25T09:21:07;9.60;99.90
76172;DHT22;64929;51.178;4.138;2024-03-25T09:23:33;9.70;99.90
76172;DHT22;64929;51.178;4.138;2024-03-25T09:25:58;9.70;99.90
76172;DHT22;64929;51.178;4.138;2024-03-25T09:28:24;9.90;99.90
76172;DHT22;64929;51.178;4.138;2024-03-25T09:30:49;10.20;99.90
76172;DHT22;64929;51.178;4.138;2024-03-25T09:33:15;10.30;99.90
76172;DHT22;64929;51.178;4.138;2024-03-25T09:35:40;10.00;99.90
76172;DHT22;64929;51.178;4.138;2024-03-25T09:38:06;10.10;99.90
76172;DHT22;64929;51.178;4.138;2024-03-25T09:40:33;10.00;99.90
76172;DHT22;64929;51.178;4.138;2024-03-25T09:43:01;10.20;99.90
76172;DHT22;64929;51.178;4.138;2024-03-25T09:45:27;10.20;99.90
76172;DHT22;64929;51.178;4.138;2024-03-25T09:47:54;10.10;99.90
76172;DHT22;64929;51.178;4.138;2024-03-25T09:50:20;10.00;99.90
76172;DHT22;64929;51.178;4.138;2024-03-25T09:52:46;9.90;99.90
76172;DHT22;64929;51.178;4.138;2024-03-25T09:55:11;10.20;99.90
76172;DHT22;64929;51.178;4.138;2024-03-25T09:57:37;10.30;99.90
76172;DHT22;64929;51.178;4.138;2024-03-25T10:00:06;10.30;99.90
76172;DHT22;64929;51.178;4.138;2024-03-25T10:02:33;10.60;99.90
76172;DHT22;64929;51.178;4.138;2024-03-25T10:04:59;10.80;99.90
76172;DHT22;64929;51.178;4.138;2024-03-25T10:07:25;10.60;99.90
76172;DHT22;64929;51.178;4.138;2024-03-25T10:09:51;10.60;99.90
76172;DHT22;64929;51.178;4.138;2024-03-25T10:12:17;10.80;99.90
76172;DHT22;64929;51.178;4.138;2024-03-25T10:14:43;10.70;99.90
76172;DHT22;64929;51.178;4.138;2024-03-25T10:17:08;10.60;99.90
76172;DHT22;64929;51.178;4.138;2024-03-25T10:19:34;10.80;99.90
76172;DHT22;64929;51.178;4.138;2024-03-25T10:24:39;10.80;99.90
76172;DHT22;64929;51.178;4.138;2024-03-25T10:27:05;11.10;99.90
76172;DHT22;64929;51.178;4.138;2024-03-25T10:29:30;11.00;99.90
76172;DHT22;64929;51.178;4.138;2024-03-25T10:31:59;11.00;99.90
76172;DHT22;64929;51.178;4.138;2024-03-25T10:34:25;11.10;99.90
76172;DHT22;64929;51.178;4.138;2024-03-25T10:36:50;11.30;99.90
76172;DHT22;64929;51.178;4.138;2024-03-25T10:39:17;11.40;99.90
76172;DHT22;64929;51.178;4.138;2024-03-25T10:41:43;11.50;99.90
76172;DHT22;64929;51.178;4.138;2024-03-25T10:44:09;11.60;99.90
76172;DHT22;64929;51.178;4.138;2024-03-25T10:46:35;11.50;99.90
76172;DHT22;64929;51.178;4.138;2024-03-25T10:49:02;11.40;99.90
76172;DHT22;64929;51.178;4.138;2024-03-25T10:51:31;11.60;99.90
76172;DHT22;64929;51.178;4.138;2024-03-25T10:53:56;11.60;99.90
76172;DHT22;64929;51.178;4.138;2024-03-25T10:56:22;11.80;99.70
76172;DHT22;64929;51.178;4.138;2024-03-25T10:58:49;12.00;99.90
76172;DHT22;64929;51.178;4.138;2024-03-25T11:01:18;11.90;99.90
76172;DHT22;64929;51.178;4.138;2024-03-25T11:03:44;11.90;99.90
76172;DHT22;64929;51.178;4.138;2024-03-25T11:06:11;11.90;99.90
76172;DHT22;64929;51.178;4.138;2024-03-25T11:08:37;11.90;99.90
76172;DHT22;64929;51.178;4.138;2024-03-25T11:11:04;12.00;99.90
76172;DHT22;64929;51.178;4.138;2024-03-25T11:13:30;12.30;99.80
76172;DHT22;64929;51.178;4.138;2024-03-25T11:15:56;12.70;99.70
76172;DHT22;64929;51.178;4.138;2024-03-25T11:18:24;12.90;97.60
76172;DHT22;64929;51.178;4.138;2024-03-25T11:20:59;13.00;96.60
76172;DHT22;64929;51.178;4.138;2024-03-25T11:23:25;13.00;97.40
76172;DHT22;64929;51.178;4.138;2024-03-25T11:25:54;12.60;96.50
76172;DHT22;64929;51.178;4.138;2024-03-25T11:28:26;12.30;97.00
76172;DHT22;64929;51.178;4.138;2024-03-25T11:30:52;12.30;97.10
76172;DHT22;64929;51.178;4.138;2024-03-25T11:33:17;12.40;97.30
76172;DHT22;64929;51.178;4.138;2024-03-25T11:35:43;12.30;96.70
76172;DHT22;64929;51.178;4.138;2024-03-25T11:38:08;12.50;97.40
76172;DHT22;64929;51.178;4.138;2024-03-25T11:40:34;12.60;96.10
76172;DHT22;64929;51.178;4.138;2024-03-25T11:43:00;12.80;95.50
76172;DHT22;64929;51.178;4.138;2024-03-25T11:45:26;13.00;95.20
76172;DHT22;64929;51.178;4.138;2024-03-25T11:47:51;12.50;92.40
76172;DHT22;64929;51.178;4.138;2024-03-25T11:50:18;12.30;91.80
76172;DHT22;64929;51.178;4.138;2024-03-25T11:52:44;12.50;92.60
76172;DHT22;64929;51.178;4.138;2024-03-25T11:55:09;12.60;92.80
76172;DHT22;64929;51.178;4.138;2024-03-25T11:57:37;12.60;90.20
76172;DHT22;64929;51.178;4.138;2024-03-25T12:00:03;12.60;89.20
76172;DHT22;64929;51.178;4.138;2024-03-25T12:02:32;12.30;93.10
76172;DHT22;64929;51.178;4.138;2024-03-25T12:04:58;12.30;94.30
76172;DHT22;64929;51.178;4.138;2024-03-25T12:07:23;12.60;90.40
76172;DHT22;64929;51.178;4.138;2024-03-25T12:09:49;12.50;91.20
76172;DHT22;64929;51.178;4.138;2024-03-25T12:12:33;12.30;92.30
76172;DHT22;64929;51.178;4.138;2024-03-25T12:15:00;12.30;93.80
76172;DHT22;64929;51.178;4.138;2024-03-25T12:17:28;12.30;93.90
76172;DHT22;64929;51.178;4.138;2024-03-25T12:20:03;12.40;91.70
76172;DHT22;64929;51.178;4.138;2024-03-25T12:22:32;12.80;90.50
76172;DHT22;64929;51.178;4.138;2024-03-25T12:25:03;13.40;86.50
76172;DHT22;64929;51.178;4.138;2024-03-25T12:27:29;13.60;87.30
76172;DHT22;64929;51.178;4.138;2024-03-25T12:30:02;13.60;85.20
76172;DHT22;64929;51.178;4.138;2024-03-25T12:32:31;13.80;76.90
76172;DHT22;64929;51.178;4.138;2024-03-25T12:34:57;13.70;75.90
76172;DHT22;64929;51.178;4.138;2024-03-25T12:37:23;13.70;75.00
76172;DHT22;64929;51.178;4.138;2024-03-25T12:39:48;13.50;86.60
76172;DHT22;64929;51.178;4.138;2024-03-25T12:42:14;13.30;81.00
76172;DHT22;64929;51.178;4.138;2024-03-25T12:44:40;13.30;83.10
76172;DHT22;64929;51.178;4.138;2024-03-25T12:47:06;13.40;78.20
76172;DHT22;64929;51.178;4.138;2024-03-25T12:49:32;13.10;78.60
76172;DHT22;64929;51.178;4.138;2024-03-25T12:51:57;13.20;81.00
76172;DHT22;64929;51.178;4.138;2024-03-25T12:54:23;13.30;81.10
76172;DHT22;64929;51.178;4.138;2024-03-25T12:56:48;13.20;76.90
76172;DHT22;64929;51.178;4.138;2024-03-25T12:59:14;13.00;78.10
76172;DHT22;64929;51.178;4.138;2024-03-25T13:01:39;12.80;86.80
76172;DHT22;64929;51.178;4.138;2024-03-25T13:04:06;13.20;85.40
76172;DHT22;64929;51.178;4.138;2024-03-25T13:06:31;13.00;75.30
76172;DHT22;64929;51.178;4.138;2024-03-25T13:08:57;12.90;78.20
76172;DHT22;64929;51.178;4.138;2024-03-25T13:11:22;12.90;75.30
76172;DHT22;64929;51.178;4.138;2024-03-25T13:13:48;13.10;80.80
76172;DHT22;64929;51.178;4.138;2024-03-25T13:16:13;13.50;82.60
76172;DHT22;64929;51.178;4.138;2024-03-25T13:18:39;13.40;74.80
76172;DHT22;64929;51.178;4.138;2024-03-25T13:21:04;13.10;73.50
76172;DHT22;64929;51.178;4.138;2024-03-25T13:23:30;12.90;73.00
76172;DHT22;64929;51.178;4.138;2024-03-25T13:25:56;12.70;73.90
76172;DHT22;64929;51.178;4.138;2024-03-25T13:28:21;12.90;81.00
76172;DHT22;64929;51.178;4.138;2024-03-25T13:30:47;13.10;74.80
76172;DHT22;64929;51.178;4.138;2024-03-25T13:33:12;13.40;72.80
76172;DHT22;64929;51.178;4.138;2024-03-25T13:35:38;13.50;70.40
76172;DHT22;64929;51.178;4.138;2024-03-25T13:38:03;13.50;65.30
76172;DHT22;64929;51.178;4.138;2024-03-25T13:40:29;13.50;71.80
76172;DHT22;64929;51.178;4.138;2024-03-25T13:42:54;13.40;67.60
76172;DHT22;64929;51.178;4.138;2024-03-25T13:45:20;13.60;67.60
76172;DHT22;64929;51.178;4.138;2024-03-25T13:47:46;13.50;67.80
76172;DHT22;64929;51.178;4.138;2024-03-25T13:50:11;13.50;67.30
76172;DHT22;64929;51.178;4.138;2024-03-25T13:52:37;13.60;69.60
76172;DHT22;64929;51.178;4.138;2024-03-25T13:55:02;13.50;67.80
76172;DHT22;64929;51.178;4.138;2024-03-25T13:57:28;13.60;71.80
76172;DHT22;64929;51.178;4.138;2024-03-25T13:59:54;13.50;65.30
76172;DHT22;64929;51.178;4.138;2024-03-25T14:02:19;13.80;69.40
76172;DHT22;64929;51.178;4.138;2024-03-25T14:04:45;13.90;69.80
76172;DHT22;64929;51.178;4.138;2024-03-25T14:07:11;13.60;64.80
76172;DHT22;64929;51.178;4.138;2024-03-25T14:09:36;13.50;66.20
76172;DHT22;64929;51.178;4.138;2024-03-25T14:12:02;13.30;65.60
76172;DHT22;64929;51.178;4.138;2024-03-25T14:14:29;13.20;65.20
76172;DHT22;64929;51.178;4.138;2024-03-25T14:16:54;13.10;67.10
76172;DHT22;64929;51.178;4.138;2024-03-25T14:19:20;13.10;67.60
76172;DHT22;64929;51.178;4.138;2024-03-25T14:21:47;13.40;67.70
76172;DHT22;64929;51.178;4.138;2024-03-25T14:24:13;13.40;66.30
76172;DHT22;64929;51.178;4.138;2024-03-25T14:26:38;13.50;69.80
76172;DHT22;64929;51.178;4.138;2024-03-25T14:29:04;13.50;64.30
76172;DHT22;64929;51.178;4.138;2024-03-25T14:31:29;13.60;65.50
76172;DHT22;64929;51.178;4.138;2024-03-25T14:33:55;13.60;63.80
76172;DHT22;64929;51.178;4.138;2024-03-25T14:36:21;13.70;63.20
76172;DHT22;64929;51.178;4.138;2024-03-25T14:38:47;13.70;63.80
76172;DHT22;64929;51.178;4.138;2024-03-25T14:41:12;13.90;64.80
76172;DHT22;64929;51.178;4.138;2024-03-25T14:43:39;14.40;61.50
76172;DHT22;64929;51.178;4.138;2024-03-25T14:46:05;14.90;60.50
76172;DHT22;64929;51.178;4.138;2024-03-25T14:48:31;15.90;54.40
76172;DHT22;64929;51.178;4.138;2024-03-25T14:50:56;15.40;55.10
76172;DHT22;64929;51.178;4.138;2024-03-25T14:53:22;15.60;54.50
76172;DHT22;64929;51.178;4.138;2024-03-25T14:55:47;15.90;52.30
76172;DHT22;64929;51.178;4.138;2024-03-25T14:58:13;16.50;51.60
76172;DHT22;64929;51.178;4.138;2024-03-25T15:00:38;17.40;51.30
76172;DHT22;64929;51.178;4.138;2024-03-25T15:03:04;17.50;50.10
76172;DHT22;64929;51.178;4.138;2024-03-25T15:05:30;16.80;48.30
76172;DHT22;64929;51.178;4.138;2024-03-25T15:07:55;17.10;49.40
76172;DHT22;64929;51.178;4.138;2024-03-25T15:10:21;17.60;48.80
76172;DHT22;64929;51.178;4.138;2024-03-25T15:12:46;17.60;46.50
76172;DHT22;64929;51.178;4.138;2024-03-25T15:15:12;17.40;49.20
76172;DHT22;64929;51.178;4.138;2024-03-25T15:17:37;17.20;47.90
76172;DHT22;64929;51.178;4.138;2024-03-25T15:20:03;17.50;48.00
76172;DHT22;64929;51.178;4.138;2024-03-25T15:22:29;18.30;47.10
76172;DHT22;64929;51.178;4.138;2024-03-25T15:24:55;18.40;46.00
76172;DHT22;64929;51.178;4.138;2024-03-25T15:27:20;17.30;47.10
76172;DHT22;64929;51.178;4.138;2024-03-25T15:29:46;16.60;48.20
76172;DHT22;64929;51.178;4.138;2024-03-25T15:32:12;16.90;49.10
76172;DHT22;64929;51.178;4.138;2024-03-25T15:34:37;17.40;49.00